Terminal Aerodrome Forecast
Issued by NWS Cleveland, OH

Home | Current Version | Previous Version | Text Only | Print | Product List | Glossary Off
Versions: 1 2 3 4 5 6 7 8 9 10 11 12 13 14 15 16

000
FTUS41 KCLE 300500
TAFERI
TAF
KERI 300521Z 3006/3106 21005KT P6SM -SHRA OVC070
      TEMPO 3006/3008 2SM TSRA OVC025CB
     FM300800 22005KT P6SM BKN100
     FM301400 24008KT P6SM BKN070
     FM301800 25010KT 6SM -SHRA OVC035
      TEMPO 3019/3022 3SM TSRA OVC025CB
     FM310000 25006KT P6SM BKN070=

USA.gov is the U.S. government's official web portal to all federal, state and local government web resources and services.